Flight Track Log - Related Links

Times and Time Zones

All times are in EDT time to prevent confusion due to time zone crossing. See the EJA929 flight status page for this flight to view local times or setup timezone preferences in your user account.

Time Position Orientation Groundspeed Altitude Reporting Facility
EDT Latitude Longitude Course Direction KTS MPH feet Rate Location/Type
Sat 09:37:33 AM 29.5192 -98.4475 130° Southeast 180 207 1,800  Level Houston Center
Sat 09:38:03 AM 29.5047 -98.4278 130° Southeast 184 212 3,100 2,833 Climbing Houston Center
Sat 09:38:45 AM 29.4808 -98.3881 125° Southeast 191 220 5,200 2,885 Climbing Houston Center
Sat 09:39:47 AM 29.4497 -98.3308 122° Southeast 220 253 8,100 1,935 Climbing Houston Center
Sat 09:40:49 AM 29.5094 -98.2914 30° Northeast 304 350 9,200 2,049 Climbing Houston Center
Sat 09:41:50 AM 29.6022 -98.3125 349° North 318 366 12,300 2,049 Climbing Houston Center
Sat 09:42:52 AM 29.6972 -98.3278 352° North 350 403 13,400 1,512 Climbing Houston Center
Sat 09:43:53 AM 29.8069 -98.3453 352° North 368 423 15,400 1,805 Climbing Houston Center
Sat 09:44:55 AM 29.9097 -98.3619 352° North 373 429 17,100 1,512 Climbing Houston Center
Sat 09:45:56 AM 30.0108 -98.3928 345° North 378 435 18,500 1,415 Climbing Houston Center
Sat 09:46:58 AM 30.1075 -98.4483 334° Northwest 386 444 20,000 1,756 Climbing Houston Center
Sat 09:47:59 AM 30.2128 -98.5094 333° Northwest 381 438 22,100 1,854 Climbing Houston Center
Sat 09:49:01 AM 30.3058 -98.5636 333° Northwest 407 468 23,800 1,694 Climbing Houston Center
Sat 09:50:03 AM 30.4061 -98.6219 333° Northwest 401 461 25,600 1,561 Climbing Houston Center
Sat 09:51:04 AM 30.5097 -98.6822 333° Northwest 413 475 27,000 1,463 Climbing Houston Center
Sat 09:52:06 AM 30.6183 -98.7461 333° Northwest 426 490 28,600 1,366 Climbing Houston Center
Sat 09:53:07 AM 30.7464 -98.8208 333° Northwest 434 499 29,800 1,073 Climbing Houston Center
Sat 09:54:09 AM 30.8608 -98.8886 333° Northwest 448 516 30,800 968 Climbing Houston Center
Sat 09:55:11 AM 30.9783 -98.9578 333° Northwest 461 531 31,800 976 Climbing Houston Center
Sat 09:56:12 AM 31.0978 -99.0297 333° Northwest 473 544 32,800 976 Climbing Houston Center
Sat 09:57:14 AM 31.2189 -99.1011 333° Northwest 479 551 33,800 976 Climbing Houston Center
Sat 09:58:15 AM 31.3419 -99.1744 333° Northwest 487 560 34,800 1,415 Climbing Houston Center
Sat 09:59:17 AM 31.4636 -99.2456 334° Northwest 482 555 36,700 1,561 Climbing Houston Center
Sat 10:00:18 AM 31.5800 -99.3178 332° Northwest 470 541 38,000 1,122 Climbing Houston Center
Sat 10:01:20 AM 31.7008 -99.3864 334° Northwest 474 545 39,000 950 Climbing Houston Center
Sat 10:02:18 AM 31.8083 -99.4547 332° Northwest 470 541 39,900 966 Climbing Fort Worth Center
Sat 10:03:18 AM 31.9261 -99.5258 333° Northwest 470 541 40,900 1,000 Climbing Fort Worth Center
Sat 10:04:18 AM 32.0419 -99.5947 333° Northwest 470 541 41,900 900 Climbing Fort Worth Center
Sat 10:05:18 AM 32.1533 -99.6636 332° Northwest 460 529 42,700 550 Climbing Fort Worth Center
Sat 10:06:18 AM 32.2650 -99.7325 332° Northwest 455 524 43,000 150 Climbing Fort Worth Center
Sat 10:07:18 AM 32.3783 -99.8019 333° Northwest 455 524 43,000  Level Fort Worth Center
Sat 10:08:18 AM 32.4919 -99.8739 332° Northwest 455 524 43,000  Level Fort Worth Center
Sat 10:09:18 AM 32.6217 -99.9539 333° Northwest 456 525 43,000  Level Fort Worth Center
Sat 10:10:18 AM 32.7372 -100.0264 332° Northwest 472 543 43,000  Level Fort Worth Center
Sat 10:11:18 AM 32.8544 -100.1064 330° Northwest 475 547 43,000  Level Fort Worth Center
Sat 10:12:18 AM 32.9678 -100.1767 333° Northwest 469 540 43,000  Level Fort Worth Center
Sat 10:13:18 AM 33.0831 -100.2522 331° Northwest 469 540 43,000  Level Fort Worth Center
Sat 10:14:18 AM 33.1981 -100.3278 331° Northwest 469 540 43,000  Level Fort Worth Center
Sat 10:15:18 AM 33.3111 -100.4036 331° Northwest 469 540 43,000  Level Fort Worth Center
Sat 10:16:18 AM 33.4261 -100.4772 332° Northwest 469 540 43,000  Level Fort Worth Center
Sat 10:17:18 AM 33.5392 -100.5536 331° Northwest 469 540 43,000  Level Fort Worth Center
Sat 10:18:18 AM 33.6542 -100.6300 331° Northwest 469 540 43,000  Level Fort Worth Center
Sat 10:19:18 AM 33.7628 -100.6989 332° Northwest 476 548 43,000  Level Fort Worth Center
Sat 10:20:18 AM 33.8839 -100.7811 331° Northwest 471 542 43,000  Level Fort Worth Center
Sat 10:21:18 AM 34.0028 -100.8583 332° Northwest 471 542 43,000  Level Fort Worth Center
Sat 10:22:18 AM 34.1175 -100.9356 331° Northwest 471 542 43,000  Level Fort Worth Center
Sat 10:23:51 AM 34.2772 -101.0428 331° Northwest 475 547 43,000  Level Albuquerque Center
Sat 10:24:53 AM 34.4167 -101.1364 331° Northwest 477 549 43,000  Level Albuquerque Center
Sat 10:25:54 AM 34.5325 -101.2147 331° Northwest 477 549 43,000  Level Albuquerque Center
Sat 10:26:56 AM 34.6478 -101.2942 330° Northwest 476 548 43,000  Level Albuquerque Center
Sat 10:27:58 AM 34.7628 -101.3725 331° Northwest 475 547 43,000  Level Albuquerque Center
Sat 10:29:00 AM 34.8786 -101.4514 331° Northwest 476 548 43,000 244 Level Albuquerque Center
Sat 10:30:01 AM 34.9931 -101.5300 331° Northwest 481 554 43,500  Climbing Albuquerque Center
Sat 10:31:03 AM 35.1100 -101.6111 330° Northwest 483 556 43,000 -242 Descending Albuquerque Center
Sat 10:32:05 AM 35.2478 -101.7092 330° Northwest 480 552 43,000  Level Albuquerque Center
Sat 10:33:07 AM 35.3583 -101.8075 324° Northwest 487 560 43,000  Level Albuquerque Center
Sat 10:34:08 AM 35.4644 -101.9047 323° Northwest 479 551 43,000  Level Albuquerque Center
Sat 10:35:10 AM 35.5786 -102.0142 322° Northwest 477 549 43,000  Level Albuquerque Center
Sat 10:36:12 AM 35.6850 -102.1108 324° Northwest 477 549 43,000  Level Albuquerque Center
Sat 10:37:14 AM 35.7906 -102.2086 323° Northwest 477 549 43,000  Level Albuquerque Center
Sat 10:38:16 AM 35.8964 -102.3067 323° Northwest 477 549 43,000  Level Albuquerque Center
Sat 10:39:17 AM 36.0031 -102.4056 323° Northwest 478 550 43,000  Level Albuquerque Center
Sat 10:40:19 AM 36.1086 -102.5044 323° Northwest 478 550 43,000  Level Albuquerque Center
Sat 10:41:21 AM 36.2161 -102.6050 323° Northwest 483 556 43,000  Level Albuquerque Center
Sat 10:42:23 AM 36.3447 -102.7267 323° Northwest 485 558 43,000  Level Albuquerque Center
Sat 10:43:25 AM 36.4511 -102.8269 323° Northwest 482 555 43,000  Level Albuquerque Center
Sat 10:44:26 AM 36.5528 -102.9222 323° Northwest 481 554 43,000  Level Albuquerque Center
Sat 10:45:28 AM 36.6722 -103.0361 323° Northwest 483 556 43,000  Level Albuquerque Center
Sat 10:46:30 AM 36.7736 -103.1344 322° Northwest 481 554 43,000  Level Albuquerque Center
Sat 10:47:32 AM 36.8931 -103.2481 323° Northwest 483 556 43,000  Level Albuquerque Center
Sat 10:48:34 AM 36.9958 -103.3469 322° Northwest 485 558 43,000  Level Albuquerque Center
Sat 10:49:36 AM 37.0983 -103.4464 322° Northwest 486 559 43,000  Level Albuquerque Center
Sat 10:50:38 AM 37.2189 -103.5625 323° Northwest 489 563 43,000  Level Albuquerque Center
Sat 10:51:39 AM 37.3264 -103.6558 325° Northwest 492 566 43,000  Level Albuquerque Center
Sat 10:52:41 AM 37.4564 -103.7550 329° Northwest 492 566 43,000  Level Albuquerque Center
Sat 10:53:43 AM 37.5664 -103.8444 327° Northwest 498 573 43,000  Level Albuquerque Center
Sat 10:55:10 AM 37.7508 -103.9897 328° Northwest 496 571 43,000  Level Denver Center
Sat 10:56:12 AM 37.8603 -104.0786 327° Northwest 492 566 43,000  Level Denver Center
Sat 10:57:14 AM 37.9917 -104.1836 328° Northwest 501 577 43,000  Level Denver Center
Sat 10:58:16 AM 38.1042 -104.2744 328° Northwest 502 578 43,000  Level Denver Center
Sat 10:59:18 AM 38.2372 -104.3836 327° Northwest 508 585 43,000  Level Denver Center
Sat 11:00:20 AM 38.3553 -104.4833 326° Northwest 510 587 43,000  Level Denver Center
Sat 11:01:22 AM 38.4717 -104.5828 326° Northwest 504 580 43,000  Level Denver Center
Sat 11:02:24 AM 38.5850 -104.6808 326° Northwest 493 567 43,000  Level Denver Center
Sat 11:03:38 AM 38.7008 -104.7808 326° Northwest 497 572 43,000  Level Denver Center
Sat 11:04:41 AM 38.8389 -104.9011 326° Northwest 500 575 43,000  Level Denver Center
Sat 11:05:43 AM 38.9775 -105.0219 326° Northwest 500 575 43,000  Level Denver Center
Sat 11:06:45 AM 39.0939 -105.1239 326° Northwest 501 577 43,000  Level Denver Center
Sat 11:07:47 AM 39.2103 -105.2261 326° Northwest 502 578 43,000  Level Denver Center
Sat 11:08:49 AM 39.3272 -105.3300 326° Northwest 505 581 43,000  Level Denver Center
Sat 11:09:51 AM 39.4428 -105.4344 325° Northwest 504 580 43,000  Level Denver Center
Sat 11:10:53 AM 39.5600 -105.5372 326° Northwest 509 586 43,000  Level Denver Center
Sat 11:11:55 AM 39.6744 -105.6411 325° Northwest 502 578 43,000  Level Denver Center
Sat 11:12:57 AM 39.7894 -105.7461 325° Northwest 503 579 43,000  Level Denver Center
Sat 11:13:59 AM 39.9286 -105.8689 326° Northwest 502 578 43,000  Level Denver Center
Sat 11:15:01 AM 40.0453 -105.9756 325° Northwest 508 585 43,000  Level Denver Center
Sat 11:16:03 AM 40.1631 -106.0822 325° Northwest 513 590 43,000  Level Denver Center
Sat 11:17:05 AM 40.2881 -106.1964 325° Northwest 512 589 43,000  Level Denver Center
Sat 11:18:07 AM 40.4014 -106.3000 325° Northwest 517 595 43,000  Level Denver Center
Sat 11:19:09 AM 40.5311 -106.4214 325° Northwest 515 593 43,000  Level Denver Center
Sat 11:20:11 AM 40.6528 -106.5322 325° Northwest 515 593 43,000  Level Denver Center
Sat 11:21:14 AM 40.7783 -106.6500 325° Northwest 517 595 43,000  Level Denver Center
Sat 11:22:16 AM 40.8903 -106.7542 325° Northwest 516 594 43,000  Level Denver Center
Sat 11:23:18 AM 41.0208 -106.8783 324° Northwest 517 595 43,000  Level Denver Center
Sat 11:24:20 AM 41.1336 -106.9839 325° Northwest 519 597 43,000  Level Denver Center
Sat 11:25:22 AM 41.2439 -107.0900 324° Northwest 515 593 43,000  Level Denver Center
Sat 11:26:24 AM 41.3736 -107.2139 324° Northwest 515 593 43,000  Level Denver Center
Sat 11:27:26 AM 41.4869 -107.3208 325° Northwest 517 595 43,000  Level Denver Center
Sat 11:28:28 AM 41.6164 -107.4467 324° Northwest 517 595 43,000  Level Denver Center
Sat 11:29:30 AM 41.7278 -107.5522 325° Northwest 515 593 43,000  Level Denver Center
Sat 11:30:31 AM 41.8564 -107.6244 337° Northwest 523 602 43,000  Level Denver Center
Sat 11:31:34 AM 42.0147 -107.6881 343° North 532 612 43,000  Level Denver Center
Sat 11:32:36 AM 42.1708 -107.7514 343° North 527 606 43,000  Level Denver Center
Sat 11:33:38 AM 42.3017 -107.8231 338° Northwest 533 613 43,000  Level Denver Center
Sat 11:34:40 AM 42.4392 -107.9447 327° Northwest 526 605 43,000  Level Denver Center
Sat 11:35:51 AM 42.5747 -108.0681 326° Northwest 522 601 43,000  Level Salt Lake Center
Sat 11:36:53 AM 42.7097 -108.1928 326° Northwest 526 605 43,000  Level Salt Lake Center
Sat 11:37:55 AM 42.8269 -108.2978 327° Northwest 527 606 43,000  Level Salt Lake Center
Sat 11:38:57 AM 42.9617 -108.4214 326° Northwest 525 604 43,000  Level Salt Lake Center
Sat 11:39:59 AM 43.0775 -108.5258 327° Northwest 525 604 43,000  Level Salt Lake Center
Sat 11:41:01 AM 43.2114 -108.6492 326° Northwest 521 600 43,000  Level Salt Lake Center
Sat 11:42:03 AM 43.3267 -108.7567 326° Northwest 523 602 43,000 -242 Level Salt Lake Center
Sat 11:43:05 AM 43.4592 -108.8800 326° Northwest 517 595 42,500 -919 Descending Salt Lake Center
Sat 11:44:07 AM 43.5767 -108.9878 326° Northwest 528 608 41,100 -1,500 Descending Salt Lake Center
Sat 11:45:09 AM 43.7108 -109.1158 325° Northwest 526 605 39,400 -1,500 Descending Salt Lake Center
Sat 11:46:11 AM 43.8178 -109.2164 326° Northwest 520 598 38,000 -1,500 Descending Salt Lake Center
Sat 11:47:13 AM 43.9564 -109.3481 326° Northwest 535 616 36,300 -1,500 Descending Salt Lake Center
Sat 11:48:15 AM 44.0725 -109.4594 325° Northwest 533 613 34,900 -1,500 Descending Salt Lake Center
Sat 11:49:17 AM 44.2089 -109.5892 326° Northwest 532 612 33,200 -1,548 Descending Salt Lake Center
Sat 11:50:19 AM 44.3281 -109.7025 326° Northwest 540 621 31,700 -1,548 Descending Salt Lake Center
Sat 11:51:21 AM 44.4675 -109.8375 325° Northwest 547 629 30,000 -1,500 Descending Salt Lake Center
Sat 11:52:23 AM 44.5864 -109.9539 325° Northwest 547 629 28,600 -1,500 Descending Salt Lake Center
Sat 11:53:25 AM 44.7153 -110.0814 325° Northwest 520 598 26,900 -1,548 Descending Salt Lake Center
Sat 11:54:27 AM 44.8269 -110.1917 325° Northwest 516 594 25,400 -1,694 Descending Salt Lake Center
Sat 11:55:29 AM 44.9547 -110.3167 325° Northwest 507 583 23,400 -1,887 Descending Salt Lake Center
Sat 11:56:31 AM 45.0544 -110.4183 324° Northwest 477 549 21,500 -1,887 Descending Salt Lake Center
Sat 11:57:33 AM 45.1436 -110.5619 311° West 442 509 19,500 -1,645 Descending Salt Lake Center
Sat 11:58:35 AM 45.2153 -110.6853 310° West 435 501 18,100 -1,355 Descending Salt Lake Center
Sat 11:59:37 AM 45.2908 -110.8161 309° West 429 494 16,700 -1,452 Descending Salt Lake Center
Sat 12:00:39 PM 45.3661 -110.9469 309° West 428 493 15,100 -1,306 Descending Salt Lake Center
Sat 12:01:41 PM 45.4567 -111.1053 309° West 427 491 14,000 -816 Descending Salt Lake Center
Sat 12:02:44 PM 45.5253 -111.2247 309° West 397 457 13,400 -528 Descending Salt Lake Center
Sat 12:03:46 PM 45.5872 -111.3358 309° West 364 419 12,900 -871 Descending Salt Lake Center
Sat 12:04:48 PM 45.6439 -111.4372 309° West 335 386 11,600 -1,452 Descending Salt Lake Center
Sat 12:05:50 PM 45.7078 -111.4983 326° Northwest 302 348 9,900 -1,694 Descending Salt Lake Center
Sat 12:06:52 PM 45.7806 -111.5142 351° North 277 319 8,100 -919 Descending Salt Lake Center
Sat 12:07:54 PM 45.8464 -111.5028 North 252 290 8,000 -48 Descending Salt Lake Center
Sat 12:08:56 PM 45.9125 -111.4675 20° North 249 287 8,000  Level Salt Lake Center
Sat 12:09:58 PM 45.9492 -111.3919 55° Northeast 249 287 8,000 -581 Level Salt Lake Center
Sat 12:11:00 PM 45.8939 -111.3144 136° Southeast 241 277 6,800 -871 Descending Salt Lake Center
Sat 12:12:02 PM 45.8514 -111.2550 136° Southeast 221 254 6,200 -677 Descending Salt Lake Center
Sat 12:13:04 PM 45.8225 -111.2150 136° Southeast 172 198 5,400 -726 Descending Salt Lake Center
Sat 12:14:06 PM 45.7961 -111.1781 136° Southeast 149 171 4,700 -677 Descending Salt Lake Center

Login

Don't have an account? Register now (free) for customized features, flight alerts, and more!